sensor_id;sensor_type;location;lat;lon;timestamp;pressure;altitude;pressure_sealevel;temperature;humidity
74346;BME280;62776;50.518;6.732;2022-09-20T00:01:30;97149.16;;;10.02;100.00
74346;BME280;62776;50.518;6.732;2022-09-20T00:04:17;97147.44;;;10.11;100.00
74346;BME280;62776;50.518;6.732;2022-09-20T00:07:03;97145.69;;;10.05;100.00
74346;BME280;62776;50.518;6.732;2022-09-20T00:09:49;97143.06;;;10.03;100.00
74346;BME280;62776;50.518;6.732;2022-09-20T00:12:35;97142.22;;;9.94;100.00
74346;BME280;62776;50.518;6.732;2022-09-20T00:15:21;97143.91;;;9.92;100.00
74346;BME280;62776;50.518;6.732;2022-09-20T00:18:08;97138.72;;;9.92;100.00
74346;BME280;62776;50.518;6.732;2022-09-20T00:20:54;97138.72;;;9.87;100.00
74346;BME280;62776;50.518;6.732;2022-09-20T00:23:40;97145.66;;;9.82;100.00
74346;BME280;62776;50.518;6.732;2022-09-20T00:26:27;97143.03;;;9.76;100.00
74346;BME280;62776;50.518;6.732;2022-09-20T00:29:13;97138.69;;;9.74;100.00
74346;BME280;62776;50.518;6.732;2022-09-20T00:31:59;97138.72;;;9.72;100.00
74346;BME280;62776;50.518;6.732;2022-09-20T00:34:45;97135.22;;;9.70;100.00
74346;BME280;62776;50.518;6.732;2022-09-20T00:37:50;97131.78;;;9.67;100.00
74346;BME280;62776;50.518;6.732;2022-09-20T00:40:36;97131.75;;;9.64;100.00
74346;BME280;62776;50.518;6.732;2022-09-20T00:43:42;97129.13;;;9.47;100.00
74346;BME280;62776;50.518;6.732;2022-09-20T00:46:36;97134.28;;;9.48;100.00
74346;BME280;62776;50.518;6.732;2022-09-20T00:49:27;97132.56;;;9.49;100.00
74346;BME280;62776;50.518;6.732;2022-09-20T00:52:14;97134.34;;;9.53;100.00
74346;BME280;62776;50.518;6.732;2022-09-20T00:55:04;97143.81;;;9.48;100.00
74346;BME280;62776;50.518;6.732;2022-09-20T00:57:52;97137.75;;;9.49;100.00
74346;BME280;62776;50.518;6.732;2022-09-20T01:00:39;97129.09;;;9.44;100.00
74346;BME280;62776;50.518;6.732;2022-09-20T01:03:28;97133.41;;;9.36;100.00
74346;BME280;62776;50.518;6.732;2022-09-20T01:06:17;97139.44;;;9.39;100.00
74346;BME280;62776;50.518;6.732;2022-09-20T01:09:04;97141.19;;;9.39;100.00
74346;BME280;62776;50.518;6.732;2022-09-20T01:11:54;97139.47;;;9.41;100.00
74346;BME280;62776;50.518;6.732;2022-09-20T01:14:43;97139.47;;;9.44;100.00
74346;BME280;62776;50.518;6.732;2022-09-20T01:17:33;97140.34;;;9.46;100.00
74346;BME280;62776;50.518;6.732;2022-09-20T01:20:30;97137.75;;;9.49;100.00
74346;BME280;62776;50.518;6.732;2022-09-20T01:23:25;97140.34;;;9.50;100.00
74346;BME280;62776;50.518;6.732;2022-09-20T01:32:29;97135.16;;;9.54;100.00
74346;BME280;62776;50.518;6.732;2022-09-20T01:35:23;97132.59;;;9.55;100.00
74346;BME280;62776;50.518;6.732;2022-09-20T01:38:26;97138.63;;;9.49;100.00
74346;BME280;62776;50.518;6.732;2022-09-20T01:41:28;97133.44;;;9.48;100.00
74346;BME280;62776;50.518;6.732;2022-09-20T01:44:38;97137.81;;;9.58;100.00
74346;BME280;62776;50.518;6.732;2022-09-20T01:50:51;97134.38;;;9.67;100.00
74346;BME280;62776;50.518;6.732;2022-09-20T02:00:18;97150.78;;;9.61;100.00
74346;BME280;62776;50.518;6.732;2022-09-20T02:09:45;97140.38;;;9.47;100.00
74346;BME280;62776;50.518;6.732;2022-09-20T02:12:55;97145.56;;;9.49;100.00
74346;BME280;62776;50.518;6.732;2022-09-20T02:25:43;97142.97;;;9.52;100.00
74346;BME280;62776;50.518;6.732;2022-09-20T02:44:45;97125.69;;;9.63;100.00
74346;BME280;62776;50.518;6.732;2022-09-20T02:47:34;97116.22;;;9.82;100.00
74346;BME280;62776;50.518;6.732;2022-09-20T02:50:44;97114.47;;;9.75;100.00
74346;BME280;62776;50.518;6.732;2022-09-20T02:56:51;97114.47;;;9.84;100.00
74346;BME280;62776;50.518;6.732;2022-09-20T02:59:57;97111.88;;;9.82;100.00
74346;BME280;62776;50.518;6.732;2022-09-20T03:03:09;97112.75;;;9.72;100.00
74346;BME280;62776;50.518;6.732;2022-09-20T03:09:41;97115.31;;;9.71;100.00
74346;BME280;62776;50.518;6.732;2022-09-20T03:22:21;97113.59;;;9.71;100.00
74346;BME280;62776;50.518;6.732;2022-09-20T03:31:35;97118.75;;;9.56;100.00
74346;BME280;62776;50.518;6.732;2022-09-20T03:38:08;97113.53;;;9.44;100.00
74346;BME280;62776;50.518;6.732;2022-09-20T03:41:17;97116.09;;;9.35;100.00
74346;BME280;62776;50.518;6.732;2022-09-20T03:44:14;97109.00;;;8.93;100.00
74346;BME280;62776;50.518;6.732;2022-09-20T03:56:43;97108.16;;;8.94;100.00
74346;BME280;62776;50.518;6.732;2022-09-20T04:02:52;97110.75;;;9.02;100.00
74346;BME280;62776;50.518;6.732;2022-09-20T04:06:08;97109.06;;;9.10;100.00
74346;BME280;62776;50.518;6.732;2022-09-20T04:12:34;97109.97;;;9.12;100.00
74346;BME280;62776;50.518;6.732;2022-09-20T04:21:23;97112.59;;;9.31;100.00
74346;BME280;62776;50.518;6.732;2022-09-20T04:27:32;97116.16;;;9.47;100.00
74346;BME280;62776;50.518;6.732;2022-09-20T04:30:25;97117.84;;;9.48;100.00
74346;BME280;62776;50.518;6.732;2022-09-20T04:33:19;97120.47;;;9.49;100.00
74346;BME280;62776;50.518;6.732;2022-09-20T04:36:22;97118.72;;;9.41;100.00
74346;BME280;62776;50.518;6.732;2022-09-20T04:39:22;97129.09;;;9.48;100.00
74346;BME280;62776;50.518;6.732;2022-09-20T04:42:37;97126.47;;;9.33;100.00
74346;BME280;62776;50.518;6.732;2022-09-20T04:58:48;97131.66;;;9.35;100.00
74346;BME280;62776;50.518;6.732;2022-09-20T05:02:10;97139.41;;;9.29;100.00
74346;BME280;62776;50.518;6.732;2022-09-20T05:08:35;97142.84;;;9.22;100.00
74346;BME280;62776;50.518;6.732;2022-09-20T05:15:19;97149.63;;;8.96;100.00
74346;BME280;62776;50.518;6.732;2022-09-20T05:28:01;97153.97;;;8.95;100.00
74346;BME280;62776;50.518;6.732;2022-09-20T05:43:29;97153.94;;;8.92;100.00
74346;BME280;62776;50.518;6.732;2022-09-20T06:08:02;97179.19;;;9.34;100.00
74346;BME280;62776;50.518;6.732;2022-09-20T06:11:03;97175.78;;;9.41;100.00
74346;BME280;62776;50.518;6.732;2022-09-20T06:14:00;97179.28;;;9.49;100.00
74346;BME280;62776;50.518;6.732;2022-09-20T06:22:58;97182.88;;;9.90;100.00
74346;BME280;62776;50.518;6.732;2022-09-20T06:25:52;97175.97;;;9.98;100.00
74346;BME280;62776;50.518;6.732;2022-09-20T06:28:55;97190.72;;;10.10;100.00
74346;BME280;62776;50.518;6.732;2022-09-20T06:31:43;97182.09;;;10.23;100.00
74346;BME280;62776;50.518;6.732;2022-09-20T06:34:30;97178.63;;;10.29;100.00
74346;BME280;62776;50.518;6.732;2022-09-20T06:37:43;97178.63;;;10.15;100.00
74346;BME280;62776;50.518;6.732;2022-09-20T06:40:52;97182.97;;;10.33;100.00
74346;BME280;62776;50.518;6.732;2022-09-20T06:43:57;97182.97;;;10.42;100.00
74346;BME280;62776;50.518;6.732;2022-09-20T06:46:43;97195.13;;;10.49;100.00
74346;BME280;62776;50.518;6.732;2022-09-20T06:49:29;97193.34;;;10.63;100.00
74346;BME280;62776;50.518;6.732;2022-09-20T06:52:19;97191.63;;;10.66;100.00
74346;BME280;62776;50.518;6.732;2022-09-20T06:55:06;97190.75;;;10.72;100.00
74346;BME280;62776;50.518;6.732;2022-09-20T06:57:53;97193.34;;;10.87;100.00
74346;BME280;62776;50.518;6.732;2022-09-20T07:00:40;97195.94;;;10.92;100.00
74346;BME280;62776;50.518;6.732;2022-09-20T07:03:26;97191.59;;;11.01;100.00
74346;BME280;62776;50.518;6.732;2022-09-20T07:06:12;97201.97;;;11.10;100.00
74346;BME280;62776;50.518;6.732;2022-09-20T07:09:05;97201.97;;;11.10;100.00
74346;BME280;62776;50.518;6.732;2022-09-20T07:11:51;97201.97;;;11.10;100.00
74346;BME280;62776;50.518;6.732;2022-09-20T07:14:37;97203.72;;;11.11;100.00
74346;BME280;62776;50.518;6.732;2022-09-20T07:17:24;97197.66;;;11.02;100.00
74346;BME280;62776;50.518;6.732;2022-09-20T07:20:10;97193.31;;;11.02;100.00
74346;BME280;62776;50.518;6.732;2022-09-20T07:22:56;97202.84;;;11.02;100.00
74346;BME280;62776;50.518;6.732;2022-09-20T07:25:42;97202.88;;;11.00;100.00
74346;BME280;62776;50.518;6.732;2022-09-20T07:28:29;97202.88;;;10.96;100.00
74346;BME280;62776;50.518;6.732;2022-09-20T07:31:20;97208.09;;;10.96;100.00
74346;BME280;62776;50.518;6.732;2022-09-20T07:34:07;97208.91;;;11.11;100.00
74346;BME280;62776;50.518;6.732;2022-09-20T07:36:55;97208.91;;;11.17;100.00
74346;BME280;62776;50.518;6.732;2022-09-20T07:39:42;97210.63;;;11.24;100.00
74346;BME280;62776;50.518;6.732;2022-09-20T07:42:28;97208.88;;;11.26;100.00
74346;BME280;62776;50.518;6.732;2022-09-20T07:45:15;97209.72;;;11.39;100.00
74346;BME280;62776;50.518;6.732;2022-09-20T07:48:01;97209.69;;;11.47;100.00
74346;BME280;62776;50.518;6.732;2022-09-20T07:50:55;97208.78;;;11.57;100.00
74346;BME280;62776;50.518;6.732;2022-09-20T07:53:41;97203.56;;;11.72;100.00
74346;BME280;62776;50.518;6.732;2022-09-20T07:56:27;97200.03;;;11.82;100.00
74346;BME280;62776;50.518;6.732;2022-09-20T07:59:14;97197.31;;;11.99;100.00
74346;BME280;62776;50.518;6.732;2022-09-20T08:02:00;97203.41;;;12.02;100.00
74346;BME280;62776;50.518;6.732;2022-09-20T08:04:46;97210.31;;;12.03;100.00
74346;BME280;62776;50.518;6.732;2022-09-20T08:07:34;97221.59;;;12.07;100.00
74346;BME280;62776;50.518;6.732;2022-09-20T08:10:20;97226.75;;;12.19;100.00
74346;BME280;62776;50.518;6.732;2022-09-20T08:13:07;97214.50;;;12.33;100.00
74346;BME280;62776;50.518;6.732;2022-09-20T08:16:01;97221.47;;;12.29;100.00
74346;BME280;62776;50.518;6.732;2022-09-20T08:18:56;97237.06;;;12.37;100.00
74346;BME280;62776;50.518;6.732;2022-09-20T08:21:44;97234.34;;;12.51;100.00
74346;BME280;62776;50.518;6.732;2022-09-20T08:24:30;97229.97;;;12.56;100.00
74346;BME280;62776;50.518;6.732;2022-09-20T08:27:16;97224.72;;;12.63;100.00
74346;BME280;62776;50.518;6.732;2022-09-20T08:30:03;97228.91;;;12.81;100.00
74346;BME280;62776;50.518;6.732;2022-09-20T08:32:49;97232.34;;;12.83;100.00
74346;BME280;62776;50.518;6.732;2022-09-20T08:35:36;97231.31;;;13.02;99.24
74346;BME280;62776;50.518;6.732;2022-09-20T08:38:22;97226.09;;;13.03;94.37
74346;BME280;62776;50.518;6.732;2022-09-20T08:41:22;97230.44;;;13.06;97.01
74346;BME280;62776;50.518;6.732;2022-09-20T08:44:39;97228.69;;;13.08;97.20
74346;BME280;62776;50.518;6.732;2022-09-20T08:47:31;97233.94;;;13.03;93.88
74346;BME280;62776;50.518;6.732;2022-09-20T08:50:20;97238.25;;;13.09;96.94
74346;BME280;62776;50.518;6.732;2022-09-20T08:53:11;97239.13;;;13.08;96.38
74346;BME280;62776;50.518;6.732;2022-09-20T08:55:59;97239.94;;;13.18;94.00
74346;BME280;62776;50.518;6.732;2022-09-20T08:58:46;97245.94;;;13.24;90.30
74346;BME280;62776;50.518;6.732;2022-09-20T09:01:32;97252.78;;;13.37;89.05
74346;BME280;62776;50.518;6.732;2022-09-20T09:04:23;97243.88;;;13.55;85.69
74346;BME280;62776;50.518;6.732;2022-09-20T09:07:12;97251.44;;;13.79;86.37
74346;BME280;62776;50.518;6.732;2022-09-20T09:09:59;97248.78;;;13.84;85.45
74346;BME280;62776;50.518;6.732;2022-09-20T09:12:46;97247.03;;;13.83;85.93
74346;BME280;62776;50.518;6.732;2022-09-20T09:15:35;97254.94;;;13.77;82.75
74346;BME280;62776;50.518;6.732;2022-09-20T09:18:35;97250.78;;;13.62;81.17
74346;BME280;62776;50.518;6.732;2022-09-20T09:21:27;97250.78;;;13.62;81.18
74346;BME280;62776;50.518;6.732;2022-09-20T09:24:16;97255.22;;;13.54;79.58
74346;BME280;62776;50.518;6.732;2022-09-20T09:27:23;97254.56;;;13.32;80.55
74346;BME280;62776;50.518;6.732;2022-09-20T09:30:40;97249.16;;;13.50;81.41
74346;BME280;62776;50.518;6.732;2022-09-20T09:33:30;97255.00;;;13.71;82.28
74346;BME280;62776;50.518;6.732;2022-09-20T09:36:21;97251.34;;;13.88;85.33
74346;BME280;62776;50.518;6.732;2022-09-20T09:42:23;97239.13;;;13.87;79.78
74346;BME280;62776;50.518;6.732;2022-09-20T09:45:19;97237.97;;;14.11;80.13
74346;BME280;62776;50.518;6.732;2022-09-20T09:48:27;97228.13;;;14.30;79.71
74346;BME280;62776;50.518;6.732;2022-09-20T09:51:18;97232.16;;;14.53;75.43
74346;BME280;62776;50.518;6.732;2022-09-20T09:54:05;97234.66;;;14.62;77.34
74346;BME280;62776;50.518;6.732;2022-09-20T09:57:05;97234.66;;;14.62;79.97
74346;BME280;62776;50.518;6.732;2022-09-20T10:00:11;97234.91;;;14.46;78.09
74346;BME280;62776;50.518;6.732;2022-09-20T10:06:12;97238.59;;;14.30;79.40
74346;BME280;62776;50.518;6.732;2022-09-20T10:27:31;97234.38;;;14.79;71.50
74346;BME280;62776;50.518;6.732;2022-09-20T10:30:38;97229.88;;;14.89;71.80
74346;BME280;62776;50.518;6.732;2022-09-20T10:36:59;97228.63;;;15.58;70.73
74346;BME280;62776;50.518;6.732;2022-09-20T10:39:51;97226.41;;;15.35;64.64
74346;BME280;62776;50.518;6.732;2022-09-20T10:42:49;97223.16;;;15.23;62.96
74346;BME280;62776;50.518;6.732;2022-09-20T10:46:08;97228.13;;;15.38;66.24
74346;BME280;62776;50.518;6.732;2022-09-20T10:49:13;97232.34;;;15.48;65.19
74346;BME280;62776;50.518;6.732;2022-09-20T11:01:29;97245.44;;;15.47;63.45
74346;BME280;62776;50.518;6.732;2022-09-20T11:04:25;97236.97;;;15.32;61.61
74346;BME280;62776;50.518;6.732;2022-09-20T11:07:23;97235.53;;;15.15;63.88
74346;BME280;62776;50.518;6.732;2022-09-20T11:10:19;97235.72;;;15.04;65.40
74346;BME280;62776;50.518;6.732;2022-09-20T11:16:27;97245.41;;;14.99;64.12
74346;BME280;62776;50.518;6.732;2022-09-20T11:25:27;97240.34;;;14.87;63.38
74346;BME280;62776;50.518;6.732;2022-09-20T11:28:32;97252.78;;;14.74;64.89
74346;BME280;62776;50.518;6.732;2022-09-20T11:31:33;97249.22;;;14.78;66.64
74346;BME280;62776;50.518;6.732;2022-09-20T11:34:30;97255.50;;;14.68;66.28
74346;BME280;62776;50.518;6.732;2022-09-20T11:37:18;97253.97;;;14.55;66.75
74346;BME280;62776;50.518;6.732;2022-09-20T11:43:04;97256.78;;;14.40;69.63
74346;BME280;62776;50.518;6.732;2022-09-20T11:45:54;97256.81;;;14.37;70.46
74346;BME280;62776;50.518;6.732;2022-09-20T11:48:46;97253.38;;;14.35;68.55
74346;BME280;62776;50.518;6.732;2022-09-20T11:57:16;97259.22;;;14.52;69.42
74346;BME280;62776;50.518;6.732;2022-09-20T12:00:04;97257.41;;;14.57;70.39
74346;BME280;62776;50.518;6.732;2022-09-20T12:02:53;97263.50;;;14.58;70.72
74346;BME280;62776;50.518;6.732;2022-09-20T12:05:40;97256.63;;;14.52;71.12
74346;BME280;62776;50.518;6.732;2022-09-20T12:08:36;97251.31;;;14.57;70.33
74346;BME280;62776;50.518;6.732;2022-09-20T12:11:41;97265.72;;;14.21;68.86
74346;BME280;62776;50.518;6.732;2022-09-20T12:14:29;97259.34;;;14.43;71.42
74346;BME280;62776;50.518;6.732;2022-09-20T12:26:37;97258.63;;;14.32;71.79
74346;BME280;62776;50.518;6.732;2022-09-20T12:38:31;97270.44;;;13.95;73.83
74346;BME280;62776;50.518;6.732;2022-09-20T12:41:19;97275.63;;;13.98;75.38
74346;BME280;62776;50.518;6.732;2022-09-20T12:47:29;97280.16;;;13.84;76.04
74346;BME280;62776;50.518;6.732;2022-09-20T12:50:16;97273.06;;;13.92;75.48
74346;BME280;62776;50.518;6.732;2022-09-20T12:53:24;97265.38;;;13.80;75.54
74346;BME280;62776;50.518;6.732;2022-09-20T12:56:15;97271.66;;;13.64;75.57
74346;BME280;62776;50.518;6.732;2022-09-20T12:59:22;97273.53;;;13.51;77.25
74346;BME280;62776;50.518;6.732;2022-09-20T13:05:48;97277.00;;;13.51;78.79
74346;BME280;62776;50.518;6.732;2022-09-20T13:08:42;97274.34;;;13.54;77.92
74346;BME280;62776;50.518;6.732;2022-09-20T13:11:53;97273.66;;;13.39;78.02
74346;BME280;62776;50.518;6.732;2022-09-20T13:14:40;97272.69;;;13.47;78.27
74346;BME280;62776;50.518;6.732;2022-09-20T13:17:28;97271.84;;;13.44;78.42
74346;BME280;62776;50.518;6.732;2022-09-20T13:20:23;97276.19;;;13.48;80.45
74346;BME280;62776;50.518;6.732;2022-09-20T13:23:26;97271.84;;;13.48;82.52
74346;BME280;62776;50.518;6.732;2022-09-20T13:26:15;97279.66;;;13.47;84.14
74346;BME280;62776;50.518;6.732;2022-09-20T13:29:18;97285.78;;;13.44;84.80
74346;BME280;62776;50.518;6.732;2022-09-20T13:32:24;97280.72;;;13.28;86.40
74346;BME280;62776;50.518;6.732;2022-09-20T13:35:17;97286.88;;;13.24;87.93
74346;BME280;62776;50.518;6.732;2022-09-20T13:38:05;97293.00;;;13.18;90.42
74346;BME280;62776;50.518;6.732;2022-09-20T13:40:53;97298.28;;;13.09;93.24
74346;BME280;62776;50.518;6.732;2022-09-20T13:43:48;97290.53;;;12.98;94.31
74346;BME280;62776;50.518;6.732;2022-09-20T13:46:43;97292.34;;;12.90;93.29
74346;BME280;62776;50.518;6.732;2022-09-20T13:49:31;97291.41;;;12.99;94.09
74346;BME280;62776;50.518;6.732;2022-09-20T13:52:26;97287.94;;;12.94;94.81
74346;BME280;62776;50.518;6.732;2022-09-20T13:55:32;97281.81;;;12.96;95.84
74346;BME280;62776;50.518;6.732;2022-09-20T13:58:28;97286.13;;;13.02;94.76
74346;BME280;62776;50.518;6.732;2022-09-20T14:01:30;97286.19;;;12.99;94.43
74346;BME280;62776;50.518;6.732;2022-09-20T14:04:20;97285.19;;;13.15;95.38
74346;BME280;62776;50.518;6.732;2022-09-20T14:07:07;97282.50;;;13.26;94.70
74346;BME280;62776;50.518;6.732;2022-09-20T14:09:55;97285.03;;;13.30;93.90
74346;BME280;62776;50.518;6.732;2022-09-20T14:12:43;97278.00;;;13.38;94.10
74346;BME280;62776;50.518;6.732;2022-09-20T14:15:38;97281.44;;;13.45;93.19
74346;BME280;62776;50.518;6.732;2022-09-20T14:18:26;97286.47;;;13.63;91.19
74346;BME280;62776;50.518;6.732;2022-09-20T14:21:13;97290.78;;;13.66;90.45
74346;BME280;62776;50.518;6.732;2022-09-20T14:24:26;97279.66;;;13.48;88.76
74346;BME280;62776;50.518;6.732;2022-09-20T14:27:21;97286.81;;;13.27;87.77
74346;BME280;62776;50.518;6.732;2022-09-20T14:30:31;97285.38;;;12.86;88.46
74346;BME280;62776;50.518;6.732;2022-09-20T14:33:19;97277.50;;;12.94;90.49
74346;BME280;62776;50.518;6.732;2022-09-20T14:36:23;97281.88;;;12.89;90.83
74346;BME280;62776;50.518;6.732;2022-09-20T14:39:14;97285.53;;;12.71;91.73
74346;BME280;62776;50.518;6.732;2022-09-20T14:42:01;97280.25;;;12.79;92.78
74346;BME280;62776;50.518;6.732;2022-09-20T14:44:50;97283.72;;;12.75;93.84
74346;BME280;62776;50.518;6.732;2022-09-20T14:47:48;97286.38;;;12.70;95.61
74346;BME280;62776;50.518;6.732;2022-09-20T14:50:44;97284.66;;;12.68;97.26
74346;BME280;62776;50.518;6.732;2022-09-20T14:53:31;97281.16;;;12.73;97.59
74346;BME280;62776;50.518;6.732;2022-09-20T14:56:39;97275.16;;;12.59;98.11
74346;BME280;62776;50.518;6.732;2022-09-20T14:59:37;97275.09;;;12.67;98.98
74346;BME280;62776;50.518;6.732;2022-09-20T15:02:26;97270.44;;;13.05;99.04
74346;BME280;62776;50.518;6.732;2022-09-20T15:05:24;97270.22;;;13.32;96.66
74346;BME280;62776;50.518;6.732;2022-09-20T15:08:13;97271.84;;;13.48;91.51
74346;BME280;62776;50.518;6.732;2022-09-20T15:11:00;97276.13;;;13.54;91.05
74346;BME280;62776;50.518;6.732;2022-09-20T15:13:46;97263.03;;;13.55;88.17
74346;BME280;62776;50.518;6.732;2022-09-20T15:16:32;97268.28;;;13.52;87.65
74346;BME280;62776;50.518;6.732;2022-09-20T15:19:19;97270.09;;;13.47;87.65
74346;BME280;62776;50.518;6.732;2022-09-20T15:22:05;97272.72;;;13.44;86.88
74346;BME280;62776;50.518;6.732;2022-09-20T15:24:51;97271.88;;;13.42;86.62
74346;BME280;62776;50.518;6.732;2022-09-20T15:27:37;97267.50;;;13.44;87.07
74346;BME280;62776;50.518;6.732;2022-09-20T15:30:23;97263.25;;;13.33;82.98
74346;BME280;62776;50.518;6.732;2022-09-20T15:33:10;97266.81;;;13.24;83.85
74346;BME280;62776;50.518;6.732;2022-09-20T15:35:57;97269.50;;;13.17;84.30
74346;BME280;62776;50.518;6.732;2022-09-20T15:38:43;97263.34;;;13.25;85.40
74346;BME280;62776;50.518;6.732;2022-09-20T15:41:30;97266.47;;;13.57;83.50
74346;BME280;62776;50.518;6.732;2022-09-20T15:44:17;97260.47;;;13.49;83.74
74346;BME280;62776;50.518;6.732;2022-09-20T15:47:03;97263.91;;;13.54;85.48
74346;BME280;62776;50.518;6.732;2022-09-20T15:49:50;97255.94;;;13.67;85.09
74346;BME280;62776;50.518;6.732;2022-09-20T15:52:38;97253.22;;;13.79;83.30
74346;BME280;62776;50.518;6.732;2022-09-20T15:55:25;97261.09;;;13.73;84.97
74346;BME280;62776;50.518;6.732;2022-09-20T15:58:11;97261.31;;;13.51;84.33
74346;BME280;62776;50.518;6.732;2022-09-20T16:01:05;97257.28;;;13.23;85.94
74346;BME280;62776;50.518;6.732;2022-09-20T16:03:52;97248.66;;;13.15;87.97
74346;BME280;62776;50.518;6.732;2022-09-20T16:06:41;97246.09;;;13.08;89.37
74346;BME280;62776;50.518;6.732;2022-09-20T16:09:27;97248.78;;;12.95;89.88
74346;BME280;62776;50.518;6.732;2022-09-20T16:12:13;97248.88;;;12.86;90.48
74346;BME280;62776;50.518;6.732;2022-09-20T16:14:59;97254.13;;;12.80;92.21
74346;BME280;62776;50.518;6.732;2022-09-20T16:17:45;97253.34;;;12.71;91.31
74346;BME280;62776;50.518;6.732;2022-09-20T16:20:51;97261.22;;;12.65;91.96
74346;BME280;62776;50.518;6.732;2022-09-20T16:23:39;97263.84;;;12.59;92.60
74346;BME280;62776;50.518;6.732;2022-09-20T16:26:26;97263.88;;;12.53;93.20
74346;BME280;62776;50.518;6.732;2022-09-20T16:29:12;97267.41;;;12.49;93.98
74346;BME280;62776;50.518;6.732;2022-09-20T16:32:00;97267.44;;;12.42;93.61
74346;BME280;62776;50.518;6.732;2022-09-20T16:34:48;97270.09;;;12.38;94.41
74346;BME280;62776;50.518;6.732;2022-09-20T16:37:34;97266.63;;;12.36;95.33
74346;BME280;62776;50.518;6.732;2022-09-20T16:40:21;97268.34;;;12.34;95.99
74346;BME280;62776;50.518;6.732;2022-09-20T16:43:07;97269.25;;;12.31;96.25
74346;BME280;62776;50.518;6.732;2022-09-20T16:45:59;97276.25;;;12.17;96.13
74346;BME280;62776;50.518;6.732;2022-09-20T16:48:47;97274.53;;;12.19;97.19
74346;BME280;62776;50.518;6.732;2022-09-20T16:51:35;97276.25;;;12.20;97.23
74346;BME280;62776;50.518;6.732;2022-09-20T16:54:21;97282.38;;;12.19;97.77
74346;BME280;62776;50.518;6.732;2022-09-20T16:57:08;97277.16;;;12.16;97.43
74346;BME280;62776;50.518;6.732;2022-09-20T16:59:54;97284.09;;;12.16;97.52
74346;BME280;62776;50.518;6.732;2022-09-20T17:02:41;97281.53;;;12.11;97.74
74346;BME280;62776;50.518;6.732;2022-09-20T17:05:27;97284.16;;;12.02;98.10
74346;BME280;62776;50.518;6.732;2022-09-20T17:08:14;97286.78;;;11.96;98.41
74346;BME280;62776;50.518;6.732;2022-09-20T17:11:00;97291.16;;;11.91;98.40
74346;BME280;62776;50.518;6.732;2022-09-20T17:13:47;97289.44;;;11.86;98.50
74346;BME280;62776;50.518;6.732;2022-09-20T17:16:38;97287.72;;;11.77;98.83
74346;BME280;62776;50.518;6.732;2022-09-20T17:19:24;97292.09;;;11.72;99.20
74346;BME280;62776;50.518;6.732;2022-09-20T17:22:11;97299.91;;;11.61;99.67
74346;BME280;62776;50.518;6.732;2022-09-20T17:24:58;97297.31;;;11.54;99.99
74346;BME280;62776;50.518;6.732;2022-09-20T17:27:44;97298.19;;;11.50;100.00
74346;BME280;62776;50.518;6.732;2022-09-20T17:30:30;97310.34;;;11.46;100.00
74346;BME280;62776;50.518;6.732;2022-09-20T17:33:16;97307.75;;;11.45;100.00
74346;BME280;62776;50.518;6.732;2022-09-20T17:36:03;97308.63;;;11.42;100.00
74346;BME280;62776;50.518;6.732;2022-09-20T17:38:53;97308.63;;;11.36;100.00
74346;BME280;62776;50.518;6.732;2022-09-20T17:41:41;97308.63;;;11.35;100.00
74346;BME280;62776;50.518;6.732;2022-09-20T17:44:28;97309.50;;;11.27;100.00
74346;BME280;62776;50.518;6.732;2022-09-20T17:47:14;97315.59;;;11.19;100.00
74346;BME280;62776;50.518;6.732;2022-09-20T17:50:03;97324.25;;;11.10;100.00
74346;BME280;62776;50.518;6.732;2022-09-20T17:52:49;97323.38;;;11.02;100.00
74346;BME280;62776;50.518;6.732;2022-09-20T17:55:35;97320.78;;;10.96;100.00
74346;BME280;62776;50.518;6.732;2022-09-20T17:58:21;97329.47;;;10.89;100.00
74346;BME280;62776;50.518;6.732;2022-09-20T18:01:11;97340.75;;;10.82;100.00
74346;BME280;62776;50.518;6.732;2022-09-20T18:04:00;97336.38;;;10.78;100.00
74346;BME280;62776;50.518;6.732;2022-09-20T18:06:49;97340.69;;;10.67;100.00
74346;BME280;62776;50.518;6.732;2022-09-20T18:09:35;97344.16;;;10.66;100.00
74346;BME280;62776;50.518;6.732;2022-09-20T18:12:21;97339.81;;;10.59;100.00
74346;BME280;62776;50.518;6.732;2022-09-20T18:15:07;97346.72;;;10.49;100.00
74346;BME280;62776;50.518;6.732;2022-09-20T18:17:53;97347.56;;;10.42;100.00
74346;BME280;62776;50.518;6.732;2022-09-20T18:20:40;97346.66;;;10.36;100.00
74346;BME280;62776;50.518;6.732;2022-09-20T18:23:26;97357.06;;;10.31;100.00
74346;BME280;62776;50.518;6.732;2022-09-20T18:26:15;97359.63;;;10.25;100.00
74346;BME280;62776;50.518;6.732;2022-09-20T18:29:10;97357.88;;;10.18;100.00
74346;BME280;62776;50.518;6.732;2022-09-20T18:31:56;97352.66;;;10.14;100.00
74346;BME280;62776;50.518;6.732;2022-09-20T18:34:44;97349.13;;;10.08;100.00
74346;BME280;62776;50.518;6.732;2022-09-20T18:37:35;97348.25;;;10.03;100.00
74346;BME280;62776;50.518;6.732;2022-09-20T18:40:22;97349.13;;;10.01;100.00
74346;BME280;62776;50.518;6.732;2022-09-20T18:43:08;97357.78;;;9.97;100.00
74346;BME280;62776;50.518;6.732;2022-09-20T18:45:57;97354.25;;;9.90;100.00
74346;BME280;62776;50.518;6.732;2022-09-20T18:48:43;97361.13;;;9.82;100.00
74346;BME280;62776;50.518;6.732;2022-09-20T18:51:30;97359.38;;;9.78;100.00
74346;BME280;62776;50.518;6.732;2022-09-20T18:54:17;97363.69;;;9.72;100.00
74346;BME280;62776;50.518;6.732;2022-09-20T18:57:03;97374.91;;;9.66;100.00
74346;BME280;62776;50.518;6.732;2022-09-20T18:59:50;97370.53;;;9.62;100.00
74346;BME280;62776;50.518;6.732;2022-09-20T19:02:57;97377.28;;;9.37;100.00
74346;BME280;62776;50.518;6.732;2022-09-20T19:05:54;97374.75;;;9.42;100.00
74346;BME280;62776;50.518;6.732;2022-09-20T19:08:52;97374.72;;;9.39;100.00
74346;BME280;62776;50.518;6.732;2022-09-20T19:11:48;97381.63;;;9.38;100.00
74346;BME280;62776;50.518;6.732;2022-09-20T19:18:13;97391.84;;;9.17;100.00
74346;BME280;62776;50.518;6.732;2022-09-20T19:21:13;97392.75;;;9.24;100.00
74346;BME280;62776;50.518;6.732;2022-09-20T19:27:11;97399.66;;;9.22;100.00